Terminal Aerodrome Forecast
Issued by NWS

Home | Current Version | Previous Version | Graphics & Text | Print | Product List | Glossary On
Versions: 1 2 3 4 5 6 7 8 9 10 11 12 13 14 15 16
297
FTUS43 KABR 182328
TAFPIR
TAF
KPIR 182328Z 1900/1924 14009KT P6SM SCT250
     FM190400 12007KT P6SM SCT200 WS020/20035KT
     FM190900 12006KT P6SM BKN200=

USA.gov is the U.S. government's official web portal to all federal, state and local government web resources and services.